sensor_id;sensor_type;location;lat;lon;timestamp;temperature;humidity
33901;DHT22;20193;49.810;6.418;2022-07-29T00:02:11;21.10;68.70
33901;DHT22;20193;49.810;6.418;2022-07-29T00:04:37;21.10;68.90
33901;DHT22;20193;49.810;6.418;2022-07-29T00:07:03;21.10;69.20
33901;DHT22;20193;49.810;6.418;2022-07-29T00:09:29;21.10;69.60
33901;DHT22;20193;49.810;6.418;2022-07-29T00:11:57;21.00;69.60
33901;DHT22;20193;49.810;6.418;2022-07-29T00:14:23;21.00;69.60
33901;DHT22;20193;49.810;6.418;2022-07-29T00:16:49;20.90;69.50
33901;DHT22;20193;49.810;6.418;2022-07-29T00:19:15;20.90;69.50
33901;DHT22;20193;49.810;6.418;2022-07-29T00:21:40;20.90;69.60
33901;DHT22;20193;49.810;6.418;2022-07-29T00:24:06;20.90;69.60
33901;DHT22;20193;49.810;6.418;2022-07-29T00:26:32;20.80;69.40
33901;DHT22;20193;49.810;6.418;2022-07-29T00:29:02;20.80;69.50
33901;DHT22;20193;49.810;6.418;2022-07-29T00:31:28;20.80;69.60
33901;DHT22;20193;49.810;6.418;2022-07-29T00:33:54;20.80;69.60
33901;DHT22;20193;49.810;6.418;2022-07-29T00:36:20;20.80;69.80
33901;DHT22;20193;49.810;6.418;2022-07-29T00:38:48;20.70;69.80
33901;DHT22;20193;49.810;6.418;2022-07-29T00:41:13;20.70;69.80
33901;DHT22;20193;49.810;6.418;2022-07-29T00:43:39;20.70;70.00
33901;DHT22;20193;49.810;6.418;2022-07-29T00:46:05;20.60;70.00
33901;DHT22;20193;49.810;6.418;2022-07-29T00:48:30;20.60;70.00
33901;DHT22;20193;49.810;6.418;2022-07-29T00:50:57;20.60;70.10
33901;DHT22;20193;49.810;6.418;2022-07-29T00:53:24;20.50;70.00
33901;DHT22;20193;49.810;6.418;2022-07-29T00:55:50;20.60;70.10
33901;DHT22;20193;49.810;6.418;2022-07-29T00:58:16;20.50;69.90
33901;DHT22;20193;49.810;6.418;2022-07-29T01:00:42;20.40;69.80
33901;DHT22;20193;49.810;6.418;2022-07-29T01:03:08;20.40;69.90
33901;DHT22;20193;49.810;6.418;2022-07-29T01:05:35;20.30;69.80
33901;DHT22;20193;49.810;6.418;2022-07-29T01:08:01;20.30;69.80
33901;DHT22;20193;49.810;6.418;2022-07-29T01:10:28;20.20;69.80
33901;DHT22;20193;49.810;6.418;2022-07-29T01:12:56;20.20;69.80
33901;DHT22;20193;49.810;6.418;2022-07-29T01:15:22;20.10;69.90
33901;DHT22;20193;49.810;6.418;2022-07-29T01:18:10;20.00;69.80
33901;DHT22;20193;49.810;6.418;2022-07-29T01:21:05;19.90;69.80
33901;DHT22;20193;49.810;6.418;2022-07-29T01:23:59;19.90;69.90
33901;DHT22;20193;49.810;6.418;2022-07-29T01:26:45;19.80;69.90
33901;DHT22;20193;49.810;6.418;2022-07-29T01:29:26;19.70;70.00
33901;DHT22;20193;49.810;6.418;2022-07-29T01:31:57;19.60;70.10
33901;DHT22;20193;49.810;6.418;2022-07-29T01:34:29;19.50;70.20
33901;DHT22;20193;49.810;6.418;2022-07-29T01:37:22;19.50;70.30
33901;DHT22;20193;49.810;6.418;2022-07-29T01:39:51;19.40;70.50
33901;DHT22;20193;49.810;6.418;2022-07-29T01:44:55;19.30;70.90
33901;DHT22;20193;49.810;6.418;2022-07-29T01:47:27;19.20;71.10
33901;DHT22;20193;49.810;6.418;2022-07-29T01:49:58;19.20;71.40
33901;DHT22;20193;49.810;6.418;2022-07-29T01:52:34;19.10;72.10
33901;DHT22;20193;49.810;6.418;2022-07-29T01:55:07;19.00;72.00
33901;DHT22;20193;49.810;6.418;2022-07-29T01:57:36;19.00;72.30
33901;DHT22;20193;49.810;6.418;2022-07-29T02:00:04;19.00;72.40
33901;DHT22;20193;49.810;6.418;2022-07-29T02:02:32;18.90;72.30
33901;DHT22;20193;49.810;6.418;2022-07-29T02:05:00;18.80;72.50
33901;DHT22;20193;49.810;6.418;2022-07-29T02:07:29;18.80;72.60
33901;DHT22;20193;49.810;6.418;2022-07-29T02:09:58;18.70;72.70
33901;DHT22;20193;49.810;6.418;2022-07-29T02:12:26;18.70;72.70
33901;DHT22;20193;49.810;6.418;2022-07-29T02:14:53;18.70;72.80
33901;DHT22;20193;49.810;6.418;2022-07-29T02:17:25;18.60;72.80
33901;DHT22;20193;49.810;6.418;2022-07-29T02:19:56;18.60;72.90
33901;DHT22;20193;49.810;6.418;2022-07-29T02:22:24;18.60;72.90
33901;DHT22;20193;49.810;6.418;2022-07-29T02:24:51;18.50;72.80
33901;DHT22;20193;49.810;6.418;2022-07-29T02:27:20;18.50;72.90
33901;DHT22;20193;49.810;6.418;2022-07-29T02:29:49;18.40;72.90
33901;DHT22;20193;49.810;6.418;2022-07-29T02:32:16;18.40;73.10
33901;DHT22;20193;49.810;6.418;2022-07-29T02:34:43;18.30;73.00
33901;DHT22;20193;49.810;6.418;2022-07-29T02:37:11;18.30;73.10
33901;DHT22;20193;49.810;6.418;2022-07-29T02:39:41;18.30;73.40
33901;DHT22;20193;49.810;6.418;2022-07-29T02:42:11;18.20;74.10
33901;DHT22;20193;49.810;6.418;2022-07-29T02:44:38;18.20;73.80
33901;DHT22;20193;49.810;6.418;2022-07-29T02:49:46;18.10;74.10
33901;DHT22;20193;49.810;6.418;2022-07-29T02:52:26;18.10;74.60
33901;DHT22;20193;49.810;6.418;2022-07-29T02:54:54;18.10;75.20
33901;DHT22;20193;49.810;6.418;2022-07-29T02:57:33;18.00;75.30
33901;DHT22;20193;49.810;6.418;2022-07-29T03:00:04;18.00;75.50
33901;DHT22;20193;49.810;6.418;2022-07-29T03:02:34;18.00;75.50
33901;DHT22;20193;49.810;6.418;2022-07-29T03:05:02;18.00;75.50
33901;DHT22;20193;49.810;6.418;2022-07-29T03:07:27;18.00;75.50
33901;DHT22;20193;49.810;6.418;2022-07-29T03:09:54;17.90;75.30
33901;DHT22;20193;49.810;6.418;2022-07-29T03:12:20;17.90;75.50
33901;DHT22;20193;49.810;6.418;2022-07-29T03:14:46;17.90;75.80
33901;DHT22;20193;49.810;6.418;2022-07-29T03:17:12;17.90;75.90
33901;DHT22;20193;49.810;6.418;2022-07-29T03:19:39;17.90;75.90
33901;DHT22;20193;49.810;6.418;2022-07-29T03:22:05;17.90;75.90
33901;DHT22;20193;49.810;6.418;2022-07-29T03:24:34;17.80;75.80
33901;DHT22;20193;49.810;6.418;2022-07-29T03:27:01;17.80;75.90
33901;DHT22;20193;49.810;6.418;2022-07-29T03:29:27;17.80;76.00
33901;DHT22;20193;49.810;6.418;2022-07-29T03:31:53;17.80;76.00
33901;DHT22;20193;49.810;6.418;2022-07-29T03:34:19;17.80;76.10
33901;DHT22;20193;49.810;6.418;2022-07-29T03:36:45;17.70;76.00
33901;DHT22;20193;49.810;6.418;2022-07-29T03:39:13;17.70;76.10
33901;DHT22;20193;49.810;6.418;2022-07-29T03:41:41;17.70;76.50
33901;DHT22;20193;49.810;6.418;2022-07-29T03:44:09;17.60;76.50
33901;DHT22;20193;49.810;6.418;2022-07-29T03:46:35;17.60;76.60
33901;DHT22;20193;49.810;6.418;2022-07-29T03:49:05;17.50;76.60
33901;DHT22;20193;49.810;6.418;2022-07-29T03:51:33;17.50;76.80
33901;DHT22;20193;49.810;6.418;2022-07-29T03:54:00;17.50;76.80
33901;DHT22;20193;49.810;6.418;2022-07-29T03:56:27;17.40;76.80
33901;DHT22;20193;49.810;6.418;2022-07-29T03:58:56;17.40;76.90
33901;DHT22;20193;49.810;6.418;2022-07-29T04:01:22;17.40;77.10
33901;DHT22;20193;49.810;6.418;2022-07-29T04:03:49;17.40;77.20
33901;DHT22;20193;49.810;6.418;2022-07-29T04:06:15;17.30;77.30
33901;DHT22;20193;49.810;6.418;2022-07-29T04:08:41;17.30;77.50
33901;DHT22;20193;49.810;6.418;2022-07-29T04:11:07;17.30;77.70
33901;DHT22;20193;49.810;6.418;2022-07-29T04:13:33;17.20;77.90
33901;DHT22;20193;49.810;6.418;2022-07-29T04:15:59;17.20;78.00
33901;DHT22;20193;49.810;6.418;2022-07-29T04:18:24;17.20;78.10
33901;DHT22;20193;49.810;6.418;2022-07-29T04:20:50;17.20;78.30
33901;DHT22;20193;49.810;6.418;2022-07-29T04:23:16;17.20;78.40
33901;DHT22;20193;49.810;6.418;2022-07-29T04:25:42;17.20;78.60
33901;DHT22;20193;49.810;6.418;2022-07-29T04:28:09;17.10;78.60
33901;DHT22;20193;49.810;6.418;2022-07-29T04:30:36;17.20;78.80
33901;DHT22;20193;49.810;6.418;2022-07-29T04:33:04;17.20;79.10
33901;DHT22;20193;49.810;6.418;2022-07-29T04:35:33;17.20;79.20
33901;DHT22;20193;49.810;6.418;2022-07-29T04:37:58;17.20;79.40
33901;DHT22;20193;49.810;6.418;2022-07-29T04:40:24;17.20;79.50
33901;DHT22;20193;49.810;6.418;2022-07-29T04:42:49;17.20;79.60
33901;DHT22;20193;49.810;6.418;2022-07-29T04:45:15;17.30;79.90
33901;DHT22;20193;49.810;6.418;2022-07-29T04:47:42;17.30;80.00
33901;DHT22;20193;49.810;6.418;2022-07-29T04:50:09;17.30;80.20
33901;DHT22;20193;49.810;6.418;2022-07-29T04:52:34;17.40;80.50
33901;DHT22;20193;49.810;6.418;2022-07-29T04:55:01;17.40;80.70
33901;DHT22;20193;49.810;6.418;2022-07-29T04:57:27;17.50;81.00
33901;DHT22;20193;49.810;6.418;2022-07-29T04:59:53;17.60;81.40
33901;DHT22;20193;49.810;6.418;2022-07-29T05:02:18;17.70;81.80
33901;DHT22;20193;49.810;6.418;2022-07-29T05:04:44;17.70;81.90
33901;DHT22;20193;49.810;6.418;2022-07-29T05:07:10;17.80;81.80
33901;DHT22;20193;49.810;6.418;2022-07-29T05:09:35;17.90;82.00
33901;DHT22;20193;49.810;6.418;2022-07-29T05:12:01;18.00;82.00
33901;DHT22;20193;49.810;6.418;2022-07-29T05:14:27;18.10;82.20
33901;DHT22;20193;49.810;6.418;2022-07-29T05:16:52;18.20;82.30
33901;DHT22;20193;49.810;6.418;2022-07-29T05:19:21;18.30;82.00
33901;DHT22;20193;49.810;6.418;2022-07-29T05:21:47;18.40;81.60
33901;DHT22;20193;49.810;6.418;2022-07-29T05:24:13;18.50;81.30
33901;DHT22;20193;49.810;6.418;2022-07-29T05:26:39;18.70;81.30
33901;DHT22;20193;49.810;6.418;2022-07-29T05:29:05;18.80;80.90
33901;DHT22;20193;49.810;6.418;2022-07-29T05:31:30;18.90;80.10
33901;DHT22;20193;49.810;6.418;2022-07-29T05:33:56;19.10;79.80
33901;DHT22;20193;49.810;6.418;2022-07-29T05:36:21;19.30;79.20
33901;DHT22;20193;49.810;6.418;2022-07-29T05:38:47;19.40;79.20
33901;DHT22;20193;49.810;6.418;2022-07-29T05:41:12;19.60;78.80
33901;DHT22;20193;49.810;6.418;2022-07-29T05:43:38;19.80;78.30
33901;DHT22;20193;49.810;6.418;2022-07-29T05:46:04;20.00;77.50
33901;DHT22;20193;49.810;6.418;2022-07-29T05:48:29;20.20;77.00
33901;DHT22;20193;49.810;6.418;2022-07-29T05:50:55;20.40;75.70
33901;DHT22;20193;49.810;6.418;2022-07-29T05:53:21;20.60;74.80
33901;DHT22;20193;49.810;6.418;2022-07-29T05:55:48;20.80;74.50
33901;DHT22;20193;49.810;6.418;2022-07-29T05:58:13;21.20;74.00
33901;DHT22;20193;49.810;6.418;2022-07-29T06:00:39;21.60;72.30
33901;DHT22;20193;49.810;6.418;2022-07-29T06:03:05;22.00;70.80
33901;DHT22;20193;49.810;6.418;2022-07-29T06:05:30;22.60;68.70
33901;DHT22;20193;49.810;6.418;2022-07-29T06:07:56;23.20;67.30
33901;DHT22;20193;49.810;6.418;2022-07-29T06:10:22;23.70;64.30
33901;DHT22;20193;49.810;6.418;2022-07-29T06:12:48;24.30;63.80
33901;DHT22;20193;49.810;6.418;2022-07-29T06:15:13;24.90;61.50
33901;DHT22;20193;49.810;6.418;2022-07-29T06:17:39;25.40;60.30
33901;DHT22;20193;49.810;6.418;2022-07-29T06:20:05;26.00;58.00
33901;DHT22;20193;49.810;6.418;2022-07-29T06:22:33;26.50;57.00
33901;DHT22;20193;49.810;6.418;2022-07-29T06:25:01;26.90;55.10
33901;DHT22;20193;49.810;6.418;2022-07-29T06:27:26;27.40;54.10
33901;DHT22;20193;49.810;6.418;2022-07-29T06:29:52;27.80;53.70
33901;DHT22;20193;49.810;6.418;2022-07-29T06:32:18;28.40;52.00
33901;DHT22;20193;49.810;6.418;2022-07-29T06:34:44;28.90;50.90
33901;DHT22;20193;49.810;6.418;2022-07-29T06:37:10;29.30;50.20
33901;DHT22;20193;49.810;6.418;2022-07-29T06:39:36;29.60;49.80
33901;DHT22;20193;49.810;6.418;2022-07-29T06:42:02;30.00;49.40
33901;DHT22;20193;49.810;6.418;2022-07-29T06:44:28;30.20;48.50
33901;DHT22;20193;49.810;6.418;2022-07-29T06:46:53;30.40;48.10
33901;DHT22;20193;49.810;6.418;2022-07-29T06:49:20;30.60;48.20
33901;DHT22;20193;49.810;6.418;2022-07-29T06:51:45;30.80;46.90
33901;DHT22;20193;49.810;6.418;2022-07-29T06:54:11;31.00;46.40
33901;DHT22;20193;49.810;6.418;2022-07-29T06:56:37;31.10;46.30
33901;DHT22;20193;49.810;6.418;2022-07-29T06:59:04;31.20;46.10
33901;DHT22;20193;49.810;6.418;2022-07-29T07:01:30;31.30;44.90
33901;DHT22;20193;49.810;6.418;2022-07-29T07:03:56;31.40;44.80
33901;DHT22;20193;49.810;6.418;2022-07-29T07:06:21;31.50;44.60
33901;DHT22;20193;49.810;6.418;2022-07-29T07:08:47;31.70;44.30
33901;DHT22;20193;49.810;6.418;2022-07-29T07:11:13;31.90;44.30
33901;DHT22;20193;49.810;6.418;2022-07-29T07:13:38;32.10;43.40
33901;DHT22;20193;49.810;6.418;2022-07-29T07:16:04;32.40;42.70
33901;DHT22;20193;49.810;6.418;2022-07-29T07:18:30;32.60;42.20
33901;DHT22;20193;49.810;6.418;2022-07-29T07:20:56;33.00;41.10
33901;DHT22;20193;49.810;6.418;2022-07-29T07:23:22;33.10;41.20
33901;DHT22;20193;49.810;6.418;2022-07-29T07:25:48;33.30;40.90
33901;DHT22;20193;49.810;6.418;2022-07-29T07:28:13;33.50;40.30
33901;DHT22;20193;49.810;6.418;2022-07-29T07:30:39;33.80;40.00
33901;DHT22;20193;49.810;6.418;2022-07-29T07:33:05;34.00;39.60
33901;DHT22;20193;49.810;6.418;2022-07-29T07:35:30;34.20;39.00
33901;DHT22;20193;49.810;6.418;2022-07-29T07:37:57;34.40;38.80
33901;DHT22;20193;49.810;6.418;2022-07-29T07:40:23;34.60;37.60
33901;DHT22;20193;49.810;6.418;2022-07-29T07:42:49;34.80;37.70
33901;DHT22;20193;49.810;6.418;2022-07-29T07:45:14;35.00;36.70
33901;DHT22;20193;49.810;6.418;2022-07-29T07:47:41;35.10;36.40
33901;DHT22;20193;49.810;6.418;2022-07-29T07:50:08;35.10;36.60
33901;DHT22;20193;49.810;6.418;2022-07-29T07:52:37;35.20;36.50
33901;DHT22;20193;49.810;6.418;2022-07-29T07:55:10;35.30;36.50
33901;DHT22;20193;49.810;6.418;2022-07-29T07:57:36;35.40;36.60
33901;DHT22;20193;49.810;6.418;2022-07-29T08:00:02;35.50;36.10
33901;DHT22;20193;49.810;6.418;2022-07-29T08:02:28;35.70;35.40
33901;DHT22;20193;49.810;6.418;2022-07-29T08:04:54;35.80;35.50
33901;DHT22;20193;49.810;6.418;2022-07-29T08:07:19;36.00;35.00
33901;DHT22;20193;49.810;6.418;2022-07-29T08:09:45;36.20;35.10
33901;DHT22;20193;49.810;6.418;2022-07-29T08:12:11;36.20;34.40
33901;DHT22;20193;49.810;6.418;2022-07-29T08:14:37;36.10;34.60
33901;DHT22;20193;49.810;6.418;2022-07-29T08:17:02;36.10;34.90
33901;DHT22;20193;49.810;6.418;2022-07-29T08:19:28;36.10;35.30
33901;DHT22;20193;49.810;6.418;2022-07-29T08:21:54;36.10;35.10
33901;DHT22;20193;49.810;6.418;2022-07-29T08:24:21;36.30;34.80
33901;DHT22;20193;49.810;6.418;2022-07-29T08:27:05;36.30;34.60
33901;DHT22;20193;49.810;6.418;2022-07-29T08:29:31;36.50;34.50
33901;DHT22;20193;49.810;6.418;2022-07-29T08:31:57;36.50;34.30
33901;DHT22;20193;49.810;6.418;2022-07-29T08:34:22;36.60;34.30
33901;DHT22;20193;49.810;6.418;2022-07-29T08:36:48;36.80;34.10
33901;DHT22;20193;49.810;6.418;2022-07-29T08:39:13;36.80;33.90
33901;DHT22;20193;49.810;6.418;2022-07-29T08:41:39;36.80;34.00
33901;DHT22;20193;49.810;6.418;2022-07-29T08:44:05;36.70;33.70
33901;DHT22;20193;49.810;6.418;2022-07-29T08:46:30;36.70;34.00
33901;DHT22;20193;49.810;6.418;2022-07-29T08:48:56;36.60;34.00
33901;DHT22;20193;49.810;6.418;2022-07-29T08:51:22;36.60;33.70
33901;DHT22;20193;49.810;6.418;2022-07-29T08:53:48;36.70;33.90
33901;DHT22;20193;49.810;6.418;2022-07-29T08:56:16;36.70;33.80
33901;DHT22;20193;49.810;6.418;2022-07-29T08:58:43;36.50;33.30
33901;DHT22;20193;49.810;6.418;2022-07-29T09:01:10;36.50;33.80
33901;DHT22;20193;49.810;6.418;2022-07-29T09:03:37;36.30;34.10
33901;DHT22;20193;49.810;6.418;2022-07-29T09:06:04;36.20;34.20
33901;DHT22;20193;49.810;6.418;2022-07-29T09:08:34;36.20;34.30
33901;DHT22;20193;49.810;6.418;2022-07-29T09:11:03;36.30;34.30
33901;DHT22;20193;49.810;6.418;2022-07-29T09:13:28;36.30;34.00
33901;DHT22;20193;49.810;6.418;2022-07-29T09:15:57;36.20;33.70
33901;DHT22;20193;49.810;6.418;2022-07-29T09:18:43;36.00;34.10
33901;DHT22;20193;49.810;6.418;2022-07-29T09:21:14;35.80;34.10
33901;DHT22;20193;49.810;6.418;2022-07-29T09:24:12;35.70;34.80
33901;DHT22;20193;49.810;6.418;2022-07-29T09:26:45;35.60;34.90
33901;DHT22;20193;49.810;6.418;2022-07-29T09:29:20;35.40;34.80
33901;DHT22;20193;49.810;6.418;2022-07-29T09:31:47;35.40;35.10
33901;DHT22;20193;49.810;6.418;2022-07-29T09:34:15;35.40;35.20
33901;DHT22;20193;49.810;6.418;2022-07-29T09:36:46;35.40;35.60
33901;DHT22;20193;49.810;6.418;2022-07-29T09:39:13;35.40;35.10
33901;DHT22;20193;49.810;6.418;2022-07-29T09:41:46;35.40;34.90
33901;DHT22;20193;49.810;6.418;2022-07-29T09:44:12;35.40;35.00
33901;DHT22;20193;49.810;6.418;2022-07-29T09:46:38;35.40;34.80
33901;DHT22;20193;49.810;6.418;2022-07-29T09:49:12;35.50;35.10
33901;DHT22;20193;49.810;6.418;2022-07-29T09:51:38;35.50;34.70
33901;DHT22;20193;49.810;6.418;2022-07-29T09:56:49;35.40;34.70
33901;DHT22;20193;49.810;6.418;2022-07-29T09:59:15;35.40;35.00
33901;DHT22;20193;49.810;6.418;2022-07-29T10:01:41;35.20;34.90
33901;DHT22;20193;49.810;6.418;2022-07-29T10:04:07;35.20;35.10
33901;DHT22;20193;49.810;6.418;2022-07-29T10:06:32;35.10;35.20
33901;DHT22;20193;49.810;6.418;2022-07-29T10:09:09;34.90;35.40
33901;DHT22;20193;49.810;6.418;2022-07-29T10:11:35;34.80;35.20
33901;DHT22;20193;49.810;6.418;2022-07-29T10:14:02;34.70;35.30
33901;DHT22;20193;49.810;6.418;2022-07-29T10:16:29;34.60;35.50
33901;DHT22;20193;49.810;6.418;2022-07-29T10:18:58;34.40;35.40
33901;DHT22;20193;49.810;6.418;2022-07-29T10:21:25;34.20;35.80
33901;DHT22;20193;49.810;6.418;2022-07-29T10:23:52;33.90;36.00
33901;DHT22;20193;49.810;6.418;2022-07-29T10:26:19;33.50;36.30
33901;DHT22;20193;49.810;6.418;2022-07-29T10:28:45;33.30;36.60
33901;DHT22;20193;49.810;6.418;2022-07-29T10:31:19;33.10;36.60
33901;DHT22;20193;49.810;6.418;2022-07-29T10:34:12;33.00;36.90
33901;DHT22;20193;49.810;6.418;2022-07-29T10:37:03;32.90;36.70
33901;DHT22;20193;49.810;6.418;2022-07-29T10:42:21;32.70;37.10
33901;DHT22;20193;49.810;6.418;2022-07-29T10:44:48;32.70;37.20
33901;DHT22;20193;49.810;6.418;2022-07-29T10:47:25;32.60;35.00
33901;DHT22;20193;49.810;6.418;2022-07-29T10:50:03;32.60;35.10
33901;DHT22;20193;49.810;6.418;2022-07-29T10:52:52;32.40;35.20
33901;DHT22;20193;49.810;6.418;2022-07-29T10:55:35;32.20;35.40
33901;DHT22;20193;49.810;6.418;2022-07-29T10:58:15;32.10;35.90
33901;DHT22;20193;49.810;6.418;2022-07-29T11:00:41;32.10;36.50
33901;DHT22;20193;49.810;6.418;2022-07-29T11:03:07;32.20;36.60
33901;DHT22;20193;49.810;6.418;2022-07-29T11:06:05;32.20;36.80
33901;DHT22;20193;49.810;6.418;2022-07-29T11:08:30;32.30;36.90
33901;DHT22;20193;49.810;6.418;2022-07-29T11:13:52;32.40;35.10
33901;DHT22;20193;49.810;6.418;2022-07-29T11:16:21;32.40;34.40
33901;DHT22;20193;49.810;6.418;2022-07-29T11:21:42;32.30;32.20
33901;DHT22;20193;49.810;6.418;2022-07-29T11:24:16;32.30;32.70
33901;DHT22;20193;49.810;6.418;2022-07-29T11:27:15;32.40;34.00
33901;DHT22;20193;49.810;6.418;2022-07-29T11:29:59;32.50;34.30
33901;DHT22;20193;49.810;6.418;2022-07-29T11:32:41;32.50;34.20
33901;DHT22;20193;49.810;6.418;2022-07-29T11:38:22;32.60;33.60
33901;DHT22;20193;49.810;6.418;2022-07-29T11:40:29;32.80;33.30
33901;DHT22;20193;49.810;6.418;2022-07-29T11:42:55;32.80;33.20
33901;DHT22;20193;49.810;6.418;2022-07-29T11:45:22;32.80;33.80
33901;DHT22;20193;49.810;6.418;2022-07-29T11:47:51;32.80;33.30
33901;DHT22;20193;49.810;6.418;2022-07-29T11:50:31;32.80;33.20
33901;DHT22;20193;49.810;6.418;2022-07-29T11:52:57;32.90;33.40
33901;DHT22;20193;49.810;6.418;2022-07-29T11:55:24;33.00;33.50
33901;DHT22;20193;49.810;6.418;2022-07-29T11:57:55;33.00;33.40
33901;DHT22;20193;49.810;6.418;2022-07-29T12:03:02;33.10;33.30
33901;DHT22;20193;49.810;6.418;2022-07-29T12:05:46;33.10;33.70
33901;DHT22;20193;49.810;6.418;2022-07-29T12:08:19;33.00;33.90
33901;DHT22;20193;49.810;6.418;2022-07-29T12:10:50;33.00;34.10
33901;DHT22;20193;49.810;6.418;2022-07-29T12:13:18;33.00;33.80
33901;DHT22;20193;49.810;6.418;2022-07-29T12:15:57;33.00;34.20
33901;DHT22;20193;49.810;6.418;2022-07-29T12:18:24;33.00;34.50
33901;DHT22;20193;49.810;6.418;2022-07-29T12:21:00;32.90;34.50
33901;DHT22;20193;49.810;6.418;2022-07-29T12:23:32;32.80;34.30
33901;DHT22;20193;49.810;6.418;2022-07-29T12:25:58;32.70;34.40
33901;DHT22;20193;49.810;6.418;2022-07-29T12:28:24;32.70;34.70
33901;DHT22;20193;49.810;6.418;2022-07-29T12:30:50;32.50;34.70
33901;DHT22;20193;49.810;6.418;2022-07-29T12:33:28;32.40;35.10
33901;DHT22;20193;49.810;6.418;2022-07-29T12:35:57;32.30;33.90
33901;DHT22;20193;49.810;6.418;2022-07-29T12:38:23;32.20;32.70
33901;DHT22;20193;49.810;6.418;2022-07-29T12:40:51;32.20;32.70
33901;DHT22;20193;49.810;6.418;2022-07-29T12:43:22;32.10;33.30
33901;DHT22;20193;49.810;6.418;2022-07-29T12:45:50;32.00;33.90
33901;DHT22;20193;49.810;6.418;2022-07-29T12:48:17;32.00;34.20
33901;DHT22;20193;49.810;6.418;2022-07-29T12:51:01;32.00;34.40
33901;DHT22;20193;49.810;6.418;2022-07-29T12:53:27;32.00;35.00
33901;DHT22;20193;49.810;6.418;2022-07-29T12:55:55;32.00;35.90
33901;DHT22;20193;49.810;6.418;2022-07-29T13:01:14;32.00;36.10
33901;DHT22;20193;49.810;6.418;2022-07-29T13:06:44;32.10;34.90
33901;DHT22;20193;49.810;6.418;2022-07-29T13:09:17;32.10;35.10
33901;DHT22;20193;49.810;6.418;2022-07-29T13:11:51;32.20;34.90
33901;DHT22;20193;49.810;6.418;2022-07-29T13:17:02;32.30;34.70
33901;DHT22;20193;49.810;6.418;2022-07-29T13:19:48;32.40;34.60
33901;DHT22;20193;49.810;6.418;2022-07-29T13:22:20;32.50;34.30
33901;DHT22;20193;49.810;6.418;2022-07-29T13:27:20;32.60;34.10
33901;DHT22;20193;49.810;6.418;2022-07-29T13:29:46;32.60;34.30
33901;DHT22;20193;49.810;6.418;2022-07-29T13:32:12;32.70;34.70
33901;DHT22;20193;49.810;6.418;2022-07-29T13:34:38;32.80;34.60
33901;DHT22;20193;49.810;6.418;2022-07-29T13:37:04;32.80;34.30
33901;DHT22;20193;49.810;6.418;2022-07-29T13:39:30;32.90;34.30
33901;DHT22;20193;49.810;6.418;2022-07-29T13:41:55;33.00;34.00
33901;DHT22;20193;49.810;6.418;2022-07-29T13:44:21;32.90;33.60
33901;DHT22;20193;49.810;6.418;2022-07-29T13:46:46;32.90;33.60
33901;DHT22;20193;49.810;6.418;2022-07-29T13:49:12;32.90;33.60
33901;DHT22;20193;49.810;6.418;2022-07-29T13:51:38;33.00;34.90
33901;DHT22;20193;49.810;6.418;2022-07-29T13:54:04;33.00;33.90
33901;DHT22;20193;49.810;6.418;2022-07-29T13:56:30;33.00;33.60
33901;DHT22;20193;49.810;6.418;2022-07-29T13:58:56;33.10;33.70
33901;DHT22;20193;49.810;6.418;2022-07-29T14:01:23;33.10;34.00
33901;DHT22;20193;49.810;6.418;2022-07-29T14:03:49;33.10;34.30
33901;DHT22;20193;49.810;6.418;2022-07-29T14:06:14;33.20;34.30
33901;DHT22;20193;49.810;6.418;2022-07-29T14:08:40;33.20;33.90
33901;DHT22;20193;49.810;6.418;2022-07-29T14:11:06;33.20;33.80
33901;DHT22;20193;49.810;6.418;2022-07-29T14:13:32;33.20;33.60
33901;DHT22;20193;49.810;6.418;2022-07-29T14:15:58;33.00;33.30
33901;DHT22;20193;49.810;6.418;2022-07-29T14:18:23;32.80;33.90
33901;DHT22;20193;49.810;6.418;2022-07-29T14:20:49;32.70;34.70
33901;DHT22;20193;49.810;6.418;2022-07-29T14:23:16;32.50;35.60
33901;DHT22;20193;49.810;6.418;2022-07-29T14:25:42;32.30;35.90
33901;DHT22;20193;49.810;6.418;2022-07-29T14:28:07;32.20;36.00
33901;DHT22;20193;49.810;6.418;2022-07-29T14:30:33;32.10;36.40
33901;DHT22;20193;49.810;6.418;2022-07-29T14:32:58;32.00;36.40
33901;DHT22;20193;49.810;6.418;2022-07-29T14:35:24;31.90;36.80
33901;DHT22;20193;49.810;6.418;2022-07-29T14:37:50;31.90;37.80
33901;DHT22;20193;49.810;6.418;2022-07-29T14:40:15;31.80;38.00
33901;DHT22;20193;49.810;6.418;2022-07-29T14:42:41;31.80;37.80
33901;DHT22;20193;49.810;6.418;2022-07-29T14:45:08;31.80;37.80
33901;DHT22;20193;49.810;6.418;2022-07-29T14:47:34;31.70;37.80
33901;DHT22;20193;49.810;6.418;2022-07-29T14:50:02;31.80;38.20
33901;DHT22;20193;49.810;6.418;2022-07-29T14:52:27;31.80;38.10
33901;DHT22;20193;49.810;6.418;2022-07-29T14:54:53;31.80;38.20
33901;DHT22;20193;49.810;6.418;2022-07-29T14:57:19;31.80;38.20
33901;DHT22;20193;49.810;6.418;2022-07-29T14:59:45;31.90;38.00
33901;DHT22;20193;49.810;6.418;2022-07-29T15:02:10;31.90;38.20
33901;DHT22;20193;49.810;6.418;2022-07-29T15:04:36;32.00;38.30
33901;DHT22;20193;49.810;6.418;2022-07-29T15:07:02;32.00;38.20
33901;DHT22;20193;49.810;6.418;2022-07-29T15:09:28;32.00;38.50
33901;DHT22;20193;49.810;6.418;2022-07-29T15:11:54;32.00;38.50
33901;DHT22;20193;49.810;6.418;2022-07-29T15:14:19;32.00;38.30
33901;DHT22;20193;49.810;6.418;2022-07-29T15:16:45;32.00;38.40
33901;DHT22;20193;49.810;6.418;2022-07-29T15:19:11;32.00;38.60
33901;DHT22;20193;49.810;6.418;2022-07-29T15:21:36;32.10;38.70
33901;DHT22;20193;49.810;6.418;2022-07-29T15:24:02;32.20;38.70
33901;DHT22;20193;49.810;6.418;2022-07-29T15:26:28;32.10;38.50
33901;DHT22;20193;49.810;6.418;2022-07-29T15:28:54;32.20;38.40
33901;DHT22;20193;49.810;6.418;2022-07-29T15:31:21;32.20;38.50
33901;DHT22;20193;49.810;6.418;2022-07-29T15:33:47;32.10;38.10
33901;DHT22;20193;49.810;6.418;2022-07-29T15:36:13;32.20;38.20
33901;DHT22;20193;49.810;6.418;2022-07-29T15:38:39;32.20;38.00
33901;DHT22;20193;49.810;6.418;2022-07-29T15:41:06;32.20;38.20
33901;DHT22;20193;49.810;6.418;2022-07-29T15:43:32;32.20;38.00
33901;DHT22;20193;49.810;6.418;2022-07-29T15:46:00;32.20;38.00
33901;DHT22;20193;49.810;6.418;2022-07-29T15:48:45;32.20;37.70
33901;DHT22;20193;49.810;6.418;2022-07-29T15:51:10;32.20;37.70
33901;DHT22;20193;49.810;6.418;2022-07-29T15:53:36;32.20;37.70
33901;DHT22;20193;49.810;6.418;2022-07-29T15:56:02;32.20;38.00
33901;DHT22;20193;49.810;6.418;2022-07-29T15:58:28;32.00;37.60
33901;DHT22;20193;49.810;6.418;2022-07-29T16:00:54;32.00;38.10
33901;DHT22;20193;49.810;6.418;2022-07-29T16:03:20;32.00;38.10
33901;DHT22;20193;49.810;6.418;2022-07-29T16:05:47;32.00;38.00
33901;DHT22;20193;49.810;6.418;2022-07-29T16:08:13;31.90;38.00
33901;DHT22;20193;49.810;6.418;2022-07-29T16:10:38;31.70;37.70